sensor_id;sensor_type;location;lat;lon;timestamp;P1;durP1;ratioP1;P2;durP2;ratioP2
11988;SDS011;6054;50.966;7.094;2023-09-18T00:00:04;6.80;;;4.07;;
11988;SDS011;6054;50.966;7.094;2023-09-18T00:02:34;8.10;;;4.18;;
11988;SDS011;6054;50.966;7.094;2023-09-18T00:05:01;5.82;;;4.00;;
11988;SDS011;6054;50.966;7.094;2023-09-18T00:07:27;8.43;;;4.13;;
11988;SDS011;6054;50.966;7.094;2023-09-18T00:09:54;8.70;;;4.18;;
11988;SDS011;6054;50.966;7.094;2023-09-18T00:12:21;7.70;;;4.35;;
11988;SDS011;6054;50.966;7.094;2023-09-18T00:14:48;9.38;;;4.00;;
11988;SDS011;6054;50.966;7.094;2023-09-18T00:17:16;10.10;;;4.88;;
11988;SDS011;6054;50.966;7.094;2023-09-18T00:19:44;7.53;;;4.00;;
11988;SDS011;6054;50.966;7.094;2023-09-18T00:22:11;9.77;;;4.20;;
11988;SDS011;6054;50.966;7.094;2023-09-18T00:24:37;7.07;;;4.47;;
11988;SDS011;6054;50.966;7.094;2023-09-18T00:27:04;7.00;;;4.00;;
11988;SDS011;6054;50.966;7.094;2023-09-18T00:29:31;7.85;;;4.78;;
11988;SDS011;6054;50.966;7.094;2023-09-18T00:31:58;8.38;;;4.40;;
11988;SDS011;6054;50.966;7.094;2023-09-18T00:34:26;10.27;;;4.88;;
11988;SDS011;6054;50.966;7.094;2023-09-18T00:36:52;6.90;;;4.25;;
11988;SDS011;6054;50.966;7.094;2023-09-18T00:39:19;7.03;;;4.07;;
11988;SDS011;6054;50.966;7.094;2023-09-18T00:41:46;6.30;;;4.38;;
11988;SDS011;6054;50.966;7.094;2023-09-18T00:44:14;9.82;;;3.85;;
11988;SDS011;6054;50.966;7.094;2023-09-18T00:46:41;8.57;;;3.92;;
11988;SDS011;6054;50.966;7.094;2023-09-18T00:49:07;7.75;;;3.92;;
11988;SDS011;6054;50.966;7.094;2023-09-18T00:51:36;8.20;;;4.07;;
11988;SDS011;6054;50.966;7.094;2023-09-18T00:54:03;8.05;;;3.88;;
11988;SDS011;6054;50.966;7.094;2023-09-18T00:56:31;11.00;;;4.25;;
11988;SDS011;6054;50.966;7.094;2023-09-18T00:58:59;5.75;;;4.35;;
11988;SDS011;6054;50.966;7.094;2023-09-18T01:01:26;7.10;;;4.28;;
11988;SDS011;6054;50.966;7.094;2023-09-18T01:03:54;6.32;;;4.38;;
11988;SDS011;6054;50.966;7.094;2023-09-18T01:06:24;8.20;;;4.03;;
11988;SDS011;6054;50.966;7.094;2023-09-18T01:08:56;11.55;;;4.85;;
11988;SDS011;6054;50.966;7.094;2023-09-18T01:11:26;6.07;;;4.15;;
11988;SDS011;6054;50.966;7.094;2023-09-18T01:14:03;8.80;;;4.60;;
11988;SDS011;6054;50.966;7.094;2023-09-18T01:16:39;11.68;;;4.82;;
11988;SDS011;6054;50.966;7.094;2023-09-18T01:19:11;7.07;;;4.28;;
11988;SDS011;6054;50.966;7.094;2023-09-18T01:21:38;7.03;;;4.30;;
11988;SDS011;6054;50.966;7.094;2023-09-18T01:24:06;11.70;;;5.15;;
11988;SDS011;6054;50.966;7.094;2023-09-18T01:26:33;6.18;;;3.53;;
11988;SDS011;6054;50.966;7.094;2023-09-18T01:28:59;9.25;;;4.10;;
11988;SDS011;6054;50.966;7.094;2023-09-18T01:31:27;6.97;;;4.40;;
11988;SDS011;6054;50.966;7.094;2023-09-18T01:33:54;11.18;;;4.75;;
11988;SDS011;6054;50.966;7.094;2023-09-18T01:36:22;4.88;;;4.30;;
11988;SDS011;6054;50.966;7.094;2023-09-18T01:38:49;8.75;;;4.40;;
11988;SDS011;6054;50.966;7.094;2023-09-18T01:41:18;7.65;;;4.10;;
11988;SDS011;6054;50.966;7.094;2023-09-18T01:43:45;9.40;;;4.50;;
11988;SDS011;6054;50.966;7.094;2023-09-18T01:46:12;6.07;;;4.20;;
11988;SDS011;6054;50.966;7.094;2023-09-18T01:48:44;6.32;;;4.20;;
11988;SDS011;6054;50.966;7.094;2023-09-18T01:51:13;8.68;;;4.10;;
11988;SDS011;6054;50.966;7.094;2023-09-18T01:53:40;5.82;;;4.20;;
11988;SDS011;6054;50.966;7.094;2023-09-18T01:56:06;6.78;;;4.00;;
11988;SDS011;6054;50.966;7.094;2023-09-18T01:58:34;7.38;;;3.95;;
11988;SDS011;6054;50.966;7.094;2023-09-18T02:01:01;4.40;;;4.00;;
11988;SDS011;6054;50.966;7.094;2023-09-18T02:03:29;5.03;;;3.90;;
11988;SDS011;6054;50.966;7.094;2023-09-18T02:05:56;8.57;;;4.75;;
11988;SDS011;6054;50.966;7.094;2023-09-18T02:08:23;7.18;;;4.20;;
11988;SDS011;6054;50.966;7.094;2023-09-18T02:10:49;7.03;;;4.40;;
11988;SDS011;6054;50.966;7.094;2023-09-18T02:13:16;3.88;;;3.58;;
11988;SDS011;6054;50.966;7.094;2023-09-18T02:15:45;9.00;;;3.58;;
11988;SDS011;6054;50.966;7.094;2023-09-18T02:18:12;6.80;;;3.75;;
11988;SDS011;6054;50.966;7.094;2023-09-18T02:20:40;5.65;;;3.25;;
11988;SDS011;6054;50.966;7.094;2023-09-18T02:23:09;8.32;;;3.25;;
11988;SDS011;6054;50.966;7.094;2023-09-18T02:25:36;7.00;;;3.20;;
11988;SDS011;6054;50.966;7.094;2023-09-18T02:28:03;8.40;;;3.55;;
11988;SDS011;6054;50.966;7.094;2023-09-18T02:30:30;5.57;;;3.10;;
11988;SDS011;6054;50.966;7.094;2023-09-18T02:32:58;10.60;;;3.38;;
11988;SDS011;6054;50.966;7.094;2023-09-18T02:35:28;6.38;;;3.28;;
11988;SDS011;6054;50.966;7.094;2023-09-18T02:37:55;9.38;;;3.45;;
11988;SDS011;6054;50.966;7.094;2023-09-18T02:40:21;7.07;;;3.67;;
11988;SDS011;6054;50.966;7.094;2023-09-18T02:42:48;7.15;;;3.40;;
11988;SDS011;6054;50.966;7.094;2023-09-18T02:45:15;6.40;;;3.50;;
11988;SDS011;6054;50.966;7.094;2023-09-18T02:47:42;8.00;;;4.10;;
11988;SDS011;6054;50.966;7.094;2023-09-18T02:50:10;8.98;;;3.50;;
11988;SDS011;6054;50.966;7.094;2023-09-18T02:52:37;10.23;;;4.07;;
11988;SDS011;6054;50.966;7.094;2023-09-18T02:55:04;8.27;;;4.07;;
11988;SDS011;6054;50.966;7.094;2023-09-18T02:57:31;4.30;;;3.45;;
11988;SDS011;6054;50.966;7.094;2023-09-18T02:59:57;8.20;;;4.05;;
11988;SDS011;6054;50.966;7.094;2023-09-18T03:02:24;6.78;;;3.42;;
11988;SDS011;6054;50.966;7.094;2023-09-18T03:04:51;7.28;;;3.90;;
11988;SDS011;6054;50.966;7.094;2023-09-18T03:07:19;8.07;;;3.70;;
11988;SDS011;6054;50.966;7.094;2023-09-18T03:09:46;8.15;;;4.05;;
11988;SDS011;6054;50.966;7.094;2023-09-18T03:12:12;4.63;;;3.30;;
11988;SDS011;6054;50.966;7.094;2023-09-18T03:14:39;6.35;;;4.10;;
11988;SDS011;6054;50.966;7.094;2023-09-18T03:17:06;7.97;;;3.60;;
11988;SDS011;6054;50.966;7.094;2023-09-18T03:19:32;8.10;;;4.05;;
11988;SDS011;6054;50.966;7.094;2023-09-18T03:21:59;8.18;;;4.38;;
11988;SDS011;6054;50.966;7.094;2023-09-18T03:24:28;7.78;;;4.07;;
11988;SDS011;6054;50.966;7.094;2023-09-18T03:26:54;6.85;;;3.95;;
11988;SDS011;6054;50.966;7.094;2023-09-18T03:29:21;7.72;;;4.00;;
11988;SDS011;6054;50.966;7.094;2023-09-18T03:31:48;7.30;;;4.20;;
11988;SDS011;6054;50.966;7.094;2023-09-18T03:34:14;10.65;;;3.80;;
11988;SDS011;6054;50.966;7.094;2023-09-18T03:36:41;5.10;;;3.65;;
11988;SDS011;6054;50.966;7.094;2023-09-18T03:39:08;6.70;;;3.45;;
11988;SDS011;6054;50.966;7.094;2023-09-18T03:41:36;10.88;;;4.32;;
11988;SDS011;6054;50.966;7.094;2023-09-18T03:44:03;7.07;;;3.88;;
11988;SDS011;6054;50.966;7.094;2023-09-18T03:46:30;10.45;;;4.18;;
11988;SDS011;6054;50.966;7.094;2023-09-18T03:48:57;8.00;;;4.00;;
11988;SDS011;6054;50.966;7.094;2023-09-18T03:51:24;6.30;;;3.63;;
11988;SDS011;6054;50.966;7.094;2023-09-18T03:53:50;10.10;;;4.30;;
11988;SDS011;6054;50.966;7.094;2023-09-18T03:56:17;5.65;;;3.83;;
11988;SDS011;6054;50.966;7.094;2023-09-18T03:58:45;11.55;;;4.50;;
11988;SDS011;6054;50.966;7.094;2023-09-18T04:01:14;7.43;;;4.70;;
11988;SDS011;6054;50.966;7.094;2023-09-18T04:03:41;4.88;;;3.65;;
11988;SDS011;6054;50.966;7.094;2023-09-18T04:06:08;8.65;;;4.57;;
11988;SDS011;6054;50.966;7.094;2023-09-18T04:08:34;11.90;;;4.07;;
11988;SDS011;6054;50.966;7.094;2023-09-18T04:11:01;7.00;;;3.70;;
11988;SDS011;6054;50.966;7.094;2023-09-18T04:13:29;8.68;;;4.28;;
11988;SDS011;6054;50.966;7.094;2023-09-18T04:15:57;8.88;;;4.25;;
11988;SDS011;6054;50.966;7.094;2023-09-18T04:18:25;7.75;;;4.10;;
11988;SDS011;6054;50.966;7.094;2023-09-18T04:20:53;11.18;;;4.47;;
11988;SDS011;6054;50.966;7.094;2023-09-18T04:23:21;8.88;;;4.35;;
11988;SDS011;6054;50.966;7.094;2023-09-18T04:25:48;9.35;;;3.90;;
11988;SDS011;6054;50.966;7.094;2023-09-18T04:28:16;6.65;;;3.10;;
11988;SDS011;6054;50.966;7.094;2023-09-18T04:30:44;11.57;;;3.83;;
11988;SDS011;6054;50.966;7.094;2023-09-18T04:33:12;8.95;;;4.18;;
11988;SDS011;6054;50.966;7.094;2023-09-18T04:35:39;8.57;;;3.83;;
11988;SDS011;6054;50.966;7.094;2023-09-18T04:38:06;8.88;;;3.55;;
11988;SDS011;6054;50.966;7.094;2023-09-18T04:40:35;8.52;;;3.90;;
11988;SDS011;6054;50.966;7.094;2023-09-18T04:43:02;12.40;;;3.70;;
11988;SDS011;6054;50.966;7.094;2023-09-18T04:45:30;10.75;;;3.72;;
11988;SDS011;6054;50.966;7.094;2023-09-18T04:47:56;8.75;;;3.53;;
11988;SDS011;6054;50.966;7.094;2023-09-18T04:50:24;13.05;;;3.40;;
11988;SDS011;6054;50.966;7.094;2023-09-18T04:52:52;14.15;;;3.67;;
11988;SDS011;6054;50.966;7.094;2023-09-18T04:55:19;9.93;;;3.70;;
11988;SDS011;6054;50.966;7.094;2023-09-18T04:57:46;9.48;;;3.95;;
11988;SDS011;6054;50.966;7.094;2023-09-18T05:00:14;11.07;;;3.65;;
11988;SDS011;6054;50.966;7.094;2023-09-18T05:02:41;8.20;;;3.40;;
11988;SDS011;6054;50.966;7.094;2023-09-18T05:05:08;9.18;;;3.45;;
11988;SDS011;6054;50.966;7.094;2023-09-18T05:07:36;10.07;;;4.15;;
11988;SDS011;6054;50.966;7.094;2023-09-18T05:10:03;6.63;;;3.15;;
11988;SDS011;6054;50.966;7.094;2023-09-18T05:12:31;7.80;;;3.30;;
11988;SDS011;6054;50.966;7.094;2023-09-18T05:14:57;7.68;;;3.10;;
11988;SDS011;6054;50.966;7.094;2023-09-18T05:17:39;8.52;;;3.33;;
11988;SDS011;6054;50.966;7.094;2023-09-18T05:20:08;13.90;;;3.38;;
11988;SDS011;6054;50.966;7.094;2023-09-18T05:22:38;12.57;;;3.47;;
11988;SDS011;6054;50.966;7.094;2023-09-18T05:25:05;7.68;;;3.83;;
11988;SDS011;6054;50.966;7.094;2023-09-18T05:27:32;8.93;;;3.33;;
11988;SDS011;6054;50.966;7.094;2023-09-18T05:29:59;9.82;;;3.45;;
11988;SDS011;6054;50.966;7.094;2023-09-18T05:32:26;6.72;;;3.05;;
11988;SDS011;6054;50.966;7.094;2023-09-18T05:34:53;8.27;;;3.10;;
11988;SDS011;6054;50.966;7.094;2023-09-18T05:37:19;8.40;;;3.30;;
11988;SDS011;6054;50.966;7.094;2023-09-18T05:39:47;6.13;;;3.40;;
11988;SDS011;6054;50.966;7.094;2023-09-18T05:42:14;6.00;;;3.20;;
11988;SDS011;6054;50.966;7.094;2023-09-18T05:44:41;5.88;;;3.17;;
11988;SDS011;6054;50.966;7.094;2023-09-18T05:47:08;7.30;;;3.05;;
11988;SDS011;6054;50.966;7.094;2023-09-18T05:49:35;7.97;;;2.85;;
11988;SDS011;6054;50.966;7.094;2023-09-18T05:52:02;5.57;;;3.20;;
11988;SDS011;6054;50.966;7.094;2023-09-18T05:54:28;9.45;;;3.10;;
11988;SDS011;6054;50.966;7.094;2023-09-18T05:56:57;10.43;;;3.10;;
11988;SDS011;6054;50.966;7.094;2023-09-18T05:59:23;11.23;;;3.42;;
11988;SDS011;6054;50.966;7.094;2023-09-18T06:01:50;8.73;;;3.15;;
11988;SDS011;6054;50.966;7.094;2023-09-18T06:04:19;10.35;;;3.13;;
11988;SDS011;6054;50.966;7.094;2023-09-18T06:06:46;9.75;;;3.15;;
11988;SDS011;6054;50.966;7.094;2023-09-18T06:09:13;9.20;;;3.33;;
11988;SDS011;6054;50.966;7.094;2023-09-18T06:11:39;8.35;;;2.90;;
11988;SDS011;6054;50.966;7.094;2023-09-18T06:14:08;7.30;;;2.70;;
11988;SDS011;6054;50.966;7.094;2023-09-18T06:16:36;5.57;;;2.38;;
11988;SDS011;6054;50.966;7.094;2023-09-18T06:19:02;6.68;;;2.33;;
11988;SDS011;6054;50.966;7.094;2023-09-18T06:21:29;7.55;;;2.92;;
11988;SDS011;6054;50.966;7.094;2023-09-18T06:23:56;6.18;;;2.88;;
11988;SDS011;6054;50.966;7.094;2023-09-18T06:26:23;5.25;;;2.83;;
11988;SDS011;6054;50.966;7.094;2023-09-18T06:28:49;8.68;;;3.17;;
11988;SDS011;6054;50.966;7.094;2023-09-18T06:31:18;6.25;;;3.00;;
11988;SDS011;6054;50.966;7.094;2023-09-18T06:33:45;6.72;;;2.75;;
11988;SDS011;6054;50.966;7.094;2023-09-18T06:36:12;8.40;;;3.30;;
11988;SDS011;6054;50.966;7.094;2023-09-18T06:38:39;6.53;;;2.58;;
11988;SDS011;6054;50.966;7.094;2023-09-18T06:41:06;10.98;;;2.85;;
11988;SDS011;6054;50.966;7.094;2023-09-18T06:43:33;10.43;;;3.25;;
11988;SDS011;6054;50.966;7.094;2023-09-18T06:45:59;5.68;;;2.17;;
11988;SDS011;6054;50.966;7.094;2023-09-18T06:48:27;9.52;;;2.78;;
11988;SDS011;6054;50.966;7.094;2023-09-18T06:50:57;8.38;;;2.50;;
11988;SDS011;6054;50.966;7.094;2023-09-18T06:53:25;4.55;;;2.05;;
11988;SDS011;6054;50.966;7.094;2023-09-18T06:55:51;5.95;;;2.03;;
11988;SDS011;6054;50.966;7.094;2023-09-18T06:58:18;5.80;;;2.13;;
11988;SDS011;6054;50.966;7.094;2023-09-18T07:00:45;7.78;;;2.42;;
11988;SDS011;6054;50.966;7.094;2023-09-18T07:03:12;4.28;;;2.20;;
11988;SDS011;6054;50.966;7.094;2023-09-18T07:05:40;6.07;;;2.08;;
11988;SDS011;6054;50.966;7.094;2023-09-18T07:08:08;6.60;;;2.30;;
11988;SDS011;6054;50.966;7.094;2023-09-18T07:10:37;3.63;;;2.03;;
11988;SDS011;6054;50.966;7.094;2023-09-18T07:13:04;3.17;;;1.65;;
11988;SDS011;6054;50.966;7.094;2023-09-18T07:15:30;6.38;;;1.80;;
11988;SDS011;6054;50.966;7.094;2023-09-18T07:17:57;5.22;;;2.00;;
11988;SDS011;6054;50.966;7.094;2023-09-18T07:20:24;6.18;;;2.03;;
11988;SDS011;6054;50.966;7.094;2023-09-18T07:22:52;5.40;;;2.10;;
11988;SDS011;6054;50.966;7.094;2023-09-18T07:25:18;6.53;;;1.75;;
11988;SDS011;6054;50.966;7.094;2023-09-18T07:27:45;4.30;;;2.38;;
11988;SDS011;6054;50.966;7.094;2023-09-18T07:30:12;6.43;;;1.80;;
11988;SDS011;6054;50.966;7.094;2023-09-18T07:32:42;5.43;;;2.00;;
11988;SDS011;6054;50.966;7.094;2023-09-18T07:35:09;2.63;;;1.35;;
11988;SDS011;6054;50.966;7.094;2023-09-18T07:37:38;6.95;;;1.58;;
11988;SDS011;6054;50.966;7.094;2023-09-18T07:40:07;2.90;;;1.75;;
11988;SDS011;6054;50.966;7.094;2023-09-18T07:42:34;5.50;;;1.52;;
11988;SDS011;6054;50.966;7.094;2023-09-18T07:45:01;3.65;;;1.35;;
11988;SDS011;6054;50.966;7.094;2023-09-18T07:47:28;5.40;;;1.77;;
11988;SDS011;6054;50.966;7.094;2023-09-18T07:49:56;3.58;;;1.60;;
11988;SDS011;6054;50.966;7.094;2023-09-18T07:52:23;4.82;;;1.80;;
11988;SDS011;6054;50.966;7.094;2023-09-18T07:54:50;4.30;;;1.83;;
11988;SDS011;6054;50.966;7.094;2023-09-18T07:57:18;2.72;;;1.40;;
11988;SDS011;6054;50.966;7.094;2023-09-18T07:59:45;4.50;;;1.92;;
11988;SDS011;6054;50.966;7.094;2023-09-18T08:02:12;5.10;;;1.52;;
11988;SDS011;6054;50.966;7.094;2023-09-18T08:04:39;2.40;;;1.50;;
11988;SDS011;6054;50.966;7.094;2023-09-18T08:07:06;4.00;;;1.52;;
11988;SDS011;6054;50.966;7.094;2023-09-18T08:09:32;5.68;;;1.95;;
11988;SDS011;6054;50.966;7.094;2023-09-18T08:12:01;3.97;;;1.58;;
11988;SDS011;6054;50.966;7.094;2023-09-18T08:14:29;3.60;;;1.50;;
11988;SDS011;6054;50.966;7.094;2023-09-18T08:16:56;5.05;;;1.45;;
11988;SDS011;6054;50.966;7.094;2023-09-18T08:19:24;4.38;;;1.77;;
11988;SDS011;6054;50.966;7.094;2023-09-18T08:21:52;3.40;;;1.58;;
11988;SDS011;6054;50.966;7.094;2023-09-18T08:24:21;2.33;;;1.63;;
11988;SDS011;6054;50.966;7.094;2023-09-18T08:26:47;3.15;;;1.80;;
11988;SDS011;6054;50.966;7.094;2023-09-18T08:29:14;2.42;;;1.70;;
11988;SDS011;6054;50.966;7.094;2023-09-18T08:31:43;3.38;;;1.48;;
11988;SDS011;6054;50.966;7.094;2023-09-18T08:34:09;2.53;;;1.40;;
11988;SDS011;6054;50.966;7.094;2023-09-18T08:36:36;2.60;;;1.40;;
11988;SDS011;6054;50.966;7.094;2023-09-18T08:39:03;4.15;;;2.70;;
11988;SDS011;6054;50.966;7.094;2023-09-18T08:41:32;6.30;;;1.50;;
11988;SDS011;6054;50.966;7.094;2023-09-18T08:44:03;4.25;;;1.55;;
11988;SDS011;6054;50.966;7.094;2023-09-18T08:46:34;1.77;;;1.45;;
11988;SDS011;6054;50.966;7.094;2023-09-18T08:49:03;2.03;;;1.35;;
11988;SDS011;6054;50.966;7.094;2023-09-18T08:51:31;1.90;;;1.35;;
11988;SDS011;6054;50.966;7.094;2023-09-18T08:53:59;2.58;;;1.50;;
11988;SDS011;6054;50.966;7.094;2023-09-18T08:56:28;1.70;;;1.25;;
11988;SDS011;6054;50.966;7.094;2023-09-18T08:58:56;2.97;;;1.50;;
11988;SDS011;6054;50.966;7.094;2023-09-18T09:01:24;2.92;;;1.38;;
11988;SDS011;6054;50.966;7.094;2023-09-18T09:03:51;4.75;;;1.52;;
11988;SDS011;6054;50.966;7.094;2023-09-18T09:06:19;1.80;;;1.35;;
11988;SDS011;6054;50.966;7.094;2023-09-18T09:08:46;3.17;;;1.45;;
11988;SDS011;6054;50.966;7.094;2023-09-18T09:11:13;2.90;;;1.50;;
11988;SDS011;6054;50.966;7.094;2023-09-18T09:13:40;3.15;;;1.30;;
11988;SDS011;6054;50.966;7.094;2023-09-18T09:16:06;2.25;;;1.52;;
11988;SDS011;6054;50.966;7.094;2023-09-18T09:18:46;3.92;;;1.20;;
11988;SDS011;6054;50.966;7.094;2023-09-18T09:21:14;3.00;;;1.58;;
11988;SDS011;6054;50.966;7.094;2023-09-18T09:23:46;2.63;;;1.20;;
11988;SDS011;6054;50.966;7.094;2023-09-18T09:26:17;4.22;;;1.55;;
11988;SDS011;6054;50.966;7.094;2023-09-18T09:28:44;3.47;;;1.50;;
11988;SDS011;6054;50.966;7.094;2023-09-18T09:31:22;3.35;;;1.35;;
11988;SDS011;6054;50.966;7.094;2023-09-18T09:33:50;2.97;;;1.25;;
11988;SDS011;6054;50.966;7.094;2023-09-18T09:36:18;3.92;;;1.23;;
11988;SDS011;6054;50.966;7.094;2023-09-18T09:38:46;3.05;;;1.70;;
11988;SDS011;6054;50.966;7.094;2023-09-18T09:41:13;3.22;;;1.50;;
11988;SDS011;6054;50.966;7.094;2023-09-18T09:43:41;2.10;;;1.30;;
11988;SDS011;6054;50.966;7.094;2023-09-18T09:46:14;1.95;;;1.17;;
11988;SDS011;6054;50.966;7.094;2023-09-18T09:48:57;2.05;;;1.40;;
11988;SDS011;6054;50.966;7.094;2023-09-18T09:51:26;1.90;;;1.35;;
11988;SDS011;6054;50.966;7.094;2023-09-18T09:53:54;2.47;;;1.40;;
11988;SDS011;6054;50.966;7.094;2023-09-18T09:56:23;1.45;;;1.33;;
11988;SDS011;6054;50.966;7.094;2023-09-18T09:59:07;1.63;;;1.40;;
11988;SDS011;6054;50.966;7.094;2023-09-18T10:01:34;4.25;;;1.38;;
11988;SDS011;6054;50.966;7.094;2023-09-18T10:04:03;3.95;;;1.67;;
11988;SDS011;6054;50.966;7.094;2023-09-18T10:06:33;2.85;;;1.50;;
11988;SDS011;6054;50.966;7.094;2023-09-18T10:09:02;1.85;;;1.50;;
11988;SDS011;6054;50.966;7.094;2023-09-18T10:11:30;3.72;;;1.45;;
11988;SDS011;6054;50.966;7.094;2023-09-18T10:14:03;2.50;;;1.20;;
11988;SDS011;6054;50.966;7.094;2023-09-18T10:16:36;3.63;;;1.50;;
11988;SDS011;6054;50.966;7.094;2023-09-18T10:19:07;2.42;;;1.15;;
11988;SDS011;6054;50.966;7.094;2023-09-18T10:21:41;4.32;;;1.33;;
11988;SDS011;6054;50.966;7.094;2023-09-18T10:24:17;5.03;;;1.40;;
11988;SDS011;6054;50.966;7.094;2023-09-18T10:26:48;1.92;;;1.23;;
11988;SDS011;6054;50.966;7.094;2023-09-18T10:29:19;1.50;;;1.40;;
11988;SDS011;6054;50.966;7.094;2023-09-18T10:31:46;1.30;;;1.20;;
11988;SDS011;6054;50.966;7.094;2023-09-18T10:34:14;3.40;;;1.30;;
11988;SDS011;6054;50.966;7.094;2023-09-18T10:36:43;2.22;;;1.33;;
11988;SDS011;6054;50.966;7.094;2023-09-18T10:39:12;4.57;;;1.58;;
11988;SDS011;6054;50.966;7.094;2023-09-18T10:41:44;1.25;;;1.15;;
11988;SDS011;6054;50.966;7.094;2023-09-18T10:44:13;1.48;;;1.20;;
11988;SDS011;6054;50.966;7.094;2023-09-18T10:46:41;1.05;;;1.05;;
11988;SDS011;6054;50.966;7.094;2023-09-18T10:49:08;2.55;;;1.60;;
11988;SDS011;6054;50.966;7.094;2023-09-18T10:51:36;2.55;;;1.30;;
11988;SDS011;6054;50.966;7.094;2023-09-18T10:54:07;4.43;;;1.00;;
11988;SDS011;6054;50.966;7.094;2023-09-18T10:56:35;3.20;;;1.05;;
11988;SDS011;6054;50.966;7.094;2023-09-18T10:59:05;1.50;;;1.40;;
11988;SDS011;6054;50.966;7.094;2023-09-18T11:01:34;2.72;;;1.08;;
11988;SDS011;6054;50.966;7.094;2023-09-18T11:04:03;4.72;;;1.20;;
11988;SDS011;6054;50.966;7.094;2023-09-18T11:09:30;1.65;;;0.98;;
11988;SDS011;6054;50.966;7.094;2023-09-18T11:12:07;3.08;;;1.13;;
11988;SDS011;6054;50.966;7.094;2023-09-18T11:14:46;2.90;;;1.05;;
11988;SDS011;6054;50.966;7.094;2023-09-18T11:17:32;3.00;;;1.00;;
11988;SDS011;6054;50.966;7.094;2023-09-18T11:20:08;1.15;;;0.93;;
11988;SDS011;6054;50.966;7.094;2023-09-18T11:22:45;1.25;;;1.15;;
11988;SDS011;6054;50.966;7.094;2023-09-18T11:25:28;2.28;;;1.02;;
11988;SDS011;6054;50.966;7.094;2023-09-18T11:28:00;3.38;;;1.30;;
11988;SDS011;6054;50.966;7.094;2023-09-18T11:30:28;1.67;;;0.98;;
11988;SDS011;6054;50.966;7.094;2023-09-18T11:32:55;3.45;;;1.10;;
11988;SDS011;6054;50.966;7.094;2023-09-18T11:35:22;3.00;;;1.08;;
11988;SDS011;6054;50.966;7.094;2023-09-18T11:38:02;1.92;;;1.00;;
11988;SDS011;6054;50.966;7.094;2023-09-18T11:40:32;3.50;;;1.10;;
11988;SDS011;6054;50.966;7.094;2023-09-18T11:43:20;1.52;;;1.30;;
11988;SDS011;6054;50.966;7.094;2023-09-18T11:45:50;4.45;;;2.15;;
11988;SDS011;6054;50.966;7.094;2023-09-18T11:48:18;3.35;;;0.95;;
11988;SDS011;6054;50.966;7.094;2023-09-18T11:50:49;2.22;;;1.17;;
11988;SDS011;6054;50.966;7.094;2023-09-18T11:53:17;2.78;;;1.20;;
11988;SDS011;6054;50.966;7.094;2023-09-18T11:55:44;2.05;;;1.10;;
11988;SDS011;6054;50.966;7.094;2023-09-18T11:58:11;1.15;;;1.00;;
11988;SDS011;6054;50.966;7.094;2023-09-18T12:00:40;2.03;;;1.48;;
11988;SDS011;6054;50.966;7.094;2023-09-18T12:03:19;3.53;;;1.15;;
11988;SDS011;6054;50.966;7.094;2023-09-18T12:05:51;1.30;;;1.20;;
11988;SDS011;6054;50.966;7.094;2023-09-18T12:08:19;2.00;;;0.95;;
11988;SDS011;6054;50.966;7.094;2023-09-18T12:10:50;1.70;;;1.15;;
11988;SDS011;6054;50.966;7.094;2023-09-18T12:13:17;1.00;;;1.00;;
11988;SDS011;6054;50.966;7.094;2023-09-18T12:15:45;3.08;;;1.30;;
11988;SDS011;6054;50.966;7.094;2023-09-18T12:18:13;2.45;;;1.30;;
11988;SDS011;6054;50.966;7.094;2023-09-18T12:20:47;3.55;;;1.20;;
11988;SDS011;6054;50.966;7.094;2023-09-18T12:23:14;1.30;;;1.20;;
11988;SDS011;6054;50.966;7.094;2023-09-18T12:25:42;1.52;;;1.42;;
11988;SDS011;6054;50.966;7.094;2023-09-18T12:28:13;1.38;;;1.25;;
11988;SDS011;6054;50.966;7.094;2023-09-18T12:30:40;1.20;;;1.15;;
11988;SDS011;6054;50.966;7.094;2023-09-18T12:33:08;1.45;;;1.02;;
11988;SDS011;6054;50.966;7.094;2023-09-18T12:35:36;1.42;;;1.10;;
11988;SDS011;6054;50.966;7.094;2023-09-18T12:38:13;1.55;;;1.15;;
11988;SDS011;6054;50.966;7.094;2023-09-18T12:40:41;2.08;;;1.27;;
11988;SDS011;6054;50.966;7.094;2023-09-18T12:43:09;2.22;;;1.40;;
11988;SDS011;6054;50.966;7.094;2023-09-18T12:45:37;3.88;;;1.30;;
11988;SDS011;6054;50.966;7.094;2023-09-18T12:48:05;2.05;;;1.30;;
11988;SDS011;6054;50.966;7.094;2023-09-18T12:50:34;2.17;;;1.70;;
11988;SDS011;6054;50.966;7.094;2023-09-18T12:53:07;2.78;;;1.77;;
11988;SDS011;6054;50.966;7.094;2023-09-18T12:55:38;3.42;;;1.20;;
11988;SDS011;6054;50.966;7.094;2023-09-18T12:58:10;1.42;;;1.33;;
11988;SDS011;6054;50.966;7.094;2023-09-18T13:00:36;1.63;;;1.52;;
11988;SDS011;6054;50.966;7.094;2023-09-18T13:03:11;3.38;;;1.60;;
11988;SDS011;6054;50.966;7.094;2023-09-18T13:05:40;2.40;;;1.30;;
11988;SDS011;6054;50.966;7.094;2023-09-18T13:08:07;2.47;;;1.20;;
11988;SDS011;6054;50.966;7.094;2023-09-18T13:10:45;2.40;;;1.30;;
11988;SDS011;6054;50.966;7.094;2023-09-18T13:13:17;2.75;;;1.17;;
11988;SDS011;6054;50.966;7.094;2023-09-18T13:15:44;3.42;;;1.50;;
11988;SDS011;6054;50.966;7.094;2023-09-18T13:18:13;2.97;;;1.38;;
11988;SDS011;6054;50.966;7.094;2023-09-18T13:20:42;3.22;;;1.20;;
11988;SDS011;6054;50.966;7.094;2023-09-18T13:23:10;7.10;;;1.60;;
11988;SDS011;6054;50.966;7.094;2023-09-18T13:25:37;1.73;;;1.42;;
11988;SDS011;6054;50.966;7.094;2023-09-18T13:28:08;2.92;;;1.35;;
11988;SDS011;6054;50.966;7.094;2023-09-18T13:30:36;1.45;;;1.35;;
11988;SDS011;6054;50.966;7.094;2023-09-18T13:33:05;1.95;;;1.33;;
11988;SDS011;6054;50.966;7.094;2023-09-18T13:35:33;3.88;;;1.30;;
11988;SDS011;6054;50.966;7.094;2023-09-18T13:38:01;1.90;;;1.30;;
11988;SDS011;6054;50.966;7.094;2023-09-18T13:40:31;3.17;;;1.20;;
11988;SDS011;6054;50.966;7.094;2023-09-18T13:42:58;1.40;;;1.30;;
11988;SDS011;6054;50.966;7.094;2023-09-18T13:45:25;1.88;;;1.30;;
11988;SDS011;6054;50.966;7.094;2023-09-18T13:47:51;3.97;;;1.20;;
11988;SDS011;6054;50.966;7.094;2023-09-18T13:50:19;2.85;;;1.40;;
11988;SDS011;6054;50.966;7.094;2023-09-18T13:52:46;1.38;;;1.27;;
11988;SDS011;6054;50.966;7.094;2023-09-18T13:55:14;1.60;;;1.48;;
11988;SDS011;6054;50.966;7.094;2023-09-18T13:57:40;1.52;;;1.40;;
11988;SDS011;6054;50.966;7.094;2023-09-18T14:00:07;1.35;;;1.20;;
11988;SDS011;6054;50.966;7.094;2023-09-18T14:02:37;3.03;;;1.30;;
11988;SDS011;6054;50.966;7.094;2023-09-18T14:05:05;1.23;;;1.17;;
11988;SDS011;6054;50.966;7.094;2023-09-18T14:07:32;3.22;;;1.30;;
11988;SDS011;6054;50.966;7.094;2023-09-18T14:09:59;1.65;;;1.48;;
11988;SDS011;6054;50.966;7.094;2023-09-18T14:12:30;1.40;;;1.30;;
11988;SDS011;6054;50.966;7.094;2023-09-18T14:14:57;1.75;;;1.48;;
11988;SDS011;6054;50.966;7.094;2023-09-18T14:17:24;2.33;;;1.10;;
11988;SDS011;6054;50.966;7.094;2023-09-18T14:19:51;1.52;;;1.38;;
11988;SDS011;6054;50.966;7.094;2023-09-18T14:22:18;1.42;;;1.33;;
11988;SDS011;6054;50.966;7.094;2023-09-18T14:24:45;1.23;;;1.10;;
11988;SDS011;6054;50.966;7.094;2023-09-18T14:27:12;1.67;;;1.20;;
11988;SDS011;6054;50.966;7.094;2023-09-18T14:29:41;2.30;;;1.20;;
11988;SDS011;6054;50.966;7.094;2023-09-18T14:32:07;1.83;;;1.30;;
11988;SDS011;6054;50.966;7.094;2023-09-18T14:34:34;1.83;;;1.45;;
11988;SDS011;6054;50.966;7.094;2023-09-18T14:37:01;1.88;;;1.40;;
11988;SDS011;6054;50.966;7.094;2023-09-18T14:39:29;1.67;;;1.30;;
11988;SDS011;6054;50.966;7.094;2023-09-18T14:41:56;2.05;;;1.50;;
11988;SDS011;6054;50.966;7.094;2023-09-18T14:44:22;1.50;;;1.30;;
11988;SDS011;6054;50.966;7.094;2023-09-18T14:46:51;1.35;;;1.25;;
11988;SDS011;6054;50.966;7.094;2023-09-18T14:49:18;1.77;;;1.50;;
11988;SDS011;6054;50.966;7.094;2023-09-18T14:51:45;3.80;;;1.60;;
11988;SDS011;6054;50.966;7.094;2023-09-18T14:54:12;1.65;;;1.33;;
11988;SDS011;6054;50.966;7.094;2023-09-18T14:56:40;1.70;;;1.38;;
11988;SDS011;6054;50.966;7.094;2023-09-18T14:59:06;2.88;;;1.25;;
11988;SDS011;6054;50.966;7.094;2023-09-18T15:01:33;4.75;;;1.83;;
11988;SDS011;6054;50.966;7.094;2023-09-18T15:04:01;1.38;;;1.27;;
11988;SDS011;6054;50.966;7.094;2023-09-18T15:06:28;1.30;;;1.30;;
11988;SDS011;6054;50.966;7.094;2023-09-18T15:08:56;4.22;;;1.27;;